KTIF

Thomas County Airport

Thedford, Nebraska, USA
METAR KTIF 191035Z AUTO 08008KT 1/2SM FG OVC001 19/18 A2985 RMK AO2 LTG DSNT NE AND NW T01850183
Observed Flight Rules
Sep-19 @ 10:35 UTC (29 minutes ago) Instrument Flight Rules
Wind Visibility Clouds Conditions
80° at 8 knots 1/2 miles
  • Overcast at 100' AGL
  • Fog
Temperatures Readings
Current 19°C / 66°F
Dewpoint 18°C / 64°F
Humidity 94%
Altimeter 29.85" Hg
Pressure 1011 hPa
Elevation 892
METAR KTIF 191035Z AUTO 08008KT 1/2SM FG OVC001 19/18 A2985 RMK AO2 LTG DSNT NE AND NW T01850183
Observed Flight Rules
Sep-19 @ 10:35 UTC
(29 minutes ago)
LIFR
Wind Visibility
80° at 8 knots 1/2 miles
Clouds
  • Overcast at 100' AGL
Conditions
  • Fog
Temperature Dewpoint
19°C / 66°F 18°C / 64°F
Humidity Altimeter Pressure
94% 29.85" Hg 1011 hPa